createdAt,value
2017-10-19T00:08:14.662Z,71.40
2017-10-19T00:27:55.930Z,72.10
2017-10-19T01:07:32.680Z,71.80
2017-10-19T01:12:53.365Z,71.90
2017-10-19T01:15:21.017Z,71.70
2017-10-19T01:17:49.356Z,71.40
2017-10-19T01:20:16.986Z,71.10
2017-10-19T01:22:44.624Z,71.40
2017-10-19T01:25:12.206Z,70.90
2017-10-19T01:27:39.849Z,71.70
2017-10-19T01:30:08.198Z,72.20
2017-10-19T01:32:36.900Z,71.80
2017-10-19T01:35:04.517Z,71.70
2017-10-19T01:37:32.100Z,71.70
2017-10-19T01:40:00.888Z,71.50
2017-10-19T01:42:28.856Z,71.70
2017-10-19T01:44:56.433Z,72.00
2017-10-19T01:47:24.050Z,72.20
2017-10-19T01:49:59.460Z,72.90
2017-10-19T01:52:27.097Z,72.90
2017-10-19T01:54:54.674Z,73.10
2017-10-19T01:57:23.769Z,72.60
2017-10-19T01:59:51.806Z,72.20
2017-10-19T02:02:19.377Z,72.00
2017-10-19T02:04:47.397Z,71.90
2017-10-19T02:07:15.465Z,72.00
2017-10-19T02:09:43.118Z,71.40
2017-10-19T02:12:11.675Z,71.80
2017-10-19T02:14:39.335Z,71.80
2017-10-19T02:17:08.219Z,72.10
2017-10-19T02:19:36.566Z,71.90
2017-10-19T02:22:04.143Z,71.90
2017-10-19T02:24:32.163Z,72.10
2017-10-19T02:26:59.750Z,71.70
2017-10-19T02:29:28.538Z,71.70
2017-10-19T02:31:56.506Z,71.70
2017-10-19T02:34:24.106Z,71.60
2017-10-19T02:36:52.500Z,71.80
2017-10-19T02:39:20.454Z,71.80
2017-10-19T02:41:48.090Z,71.70
2017-10-19T02:44:15.664Z,71.80
2017-10-19T02:46:43.253Z,72.40
2017-10-19T02:49:11.671Z,72.00
2017-10-19T02:51:39.245Z,72.10
2017-10-19T02:54:06.884Z,72.30
2017-10-19T02:56:34.522Z,72.70
2017-10-19T02:59:02.107Z,73.60
2017-10-19T03:01:29.726Z,73.80
2017-10-19T03:03:57.753Z,74.10
2017-10-19T03:06:25.432Z,74.40
2017-10-19T03:08:53.790Z,74.80
2017-10-19T03:11:21.391Z,74.70
2017-10-19T03:13:49.010Z,74.50
2017-10-19T03:16:16.588Z,74.20
2017-10-19T03:18:45.004Z,74.10
2017-10-19T03:21:13.347Z,74.30
2017-10-19T03:23:40.939Z,74.70
2017-10-19T03:26:09.770Z,74.40
2017-10-19T03:28:38.096Z,74.40
2017-10-19T03:31:06.891Z,74.60
2017-10-19T03:33:35.220Z,75.20
2017-10-19T03:36:02.777Z,75.00
2017-10-19T03:38:32.172Z,74.40
2017-10-19T03:40:59.745Z,74.90
2017-10-19T03:43:27.392Z,75.00
2017-10-19T03:48:23.885Z,74.40
2017-10-19T03:50:51.513Z,74.50
2017-10-19T03:53:19.105Z,74.50
2017-10-19T03:55:47.141Z,74.60
2017-10-19T03:58:14.736Z,75.00
2017-10-19T04:00:42.695Z,74.60
2017-10-19T04:03:10.309Z,74.80
2017-10-19T04:05:37.885Z,73.70
2017-10-19T04:10:34.476Z,72.80
2017-10-19T04:13:02.819Z,73.10
2017-10-19T04:15:30.847Z,73.50
2017-10-19T04:17:58.429Z,73.30
2017-10-19T04:37:37.918Z,74.50
2017-10-19T04:40:21.829Z,75.40
2017-10-19T04:45:18.417Z,74.90
2017-10-19T04:47:45.998Z,75.20
2017-10-19T04:50:13.592Z,75.00
2017-10-19T04:52:41.185Z,75.20
2017-10-19T04:55:08.818Z,75.40
2017-10-19T04:57:36.435Z,75.30
2017-10-19T05:00:04.014Z,75.20
2017-10-19T05:19:50.420Z,74.80
2017-10-19T05:22:17.997Z,74.70
2017-10-19T05:36:17.989Z,74.80
2017-10-19T05:38:45.984Z,74.90
2017-10-19T05:41:13.700Z,75.10
2017-10-19T05:43:41.661Z,74.90
2017-10-19T05:46:10.156Z,74.60
2017-10-19T05:48:38.540Z,74.80
2017-10-19T05:56:05.512Z,74.60
2017-10-19T06:06:00.383Z,74.70
2017-10-19T06:08:27.982Z,75.00
2017-10-19T06:10:56.700Z,74.90
2017-10-19T06:18:22.307Z,75.20
2017-10-19T06:20:51.375Z,75.30
2017-10-19T06:23:19.739Z,75.60
2017-10-19T06:25:48.892Z,76.00
2017-10-19T06:28:17.230Z,76.20
2017-10-19T06:30:45.638Z,76.30
2017-10-19T06:33:13.969Z,76.20
2017-10-19T06:35:41.535Z,76.20
2017-10-19T06:38:09.163Z,76.30
2017-10-19T06:40:36.747Z,76.60
2017-10-19T06:43:04.379Z,76.60
2017-10-19T06:45:31.967Z,76.50
2017-10-19T06:48:01.051Z,76.30
2017-10-19T06:50:28.669Z,75.80
2017-10-19T06:52:56.249Z,75.70
2017-10-19T06:55:25.034Z,75.00
2017-10-19T07:00:21.592Z,73.70
2017-10-19T07:02:50.314Z,73.10
2017-10-19T07:05:17.929Z,74.10
2017-10-19T07:07:46.647Z,74.80
2017-10-19T07:10:14.666Z,75.10
2017-10-19T07:12:42.283Z,75.20
2017-10-19T07:17:38.827Z,74.80
2017-10-19T07:27:33.724Z,73.30
2017-10-19T07:30:01.292Z,73.50
2017-10-19T07:32:30.276Z,73.30
2017-10-19T07:34:58.240Z,73.70
2017-10-19T07:37:26.217Z,73.90
2017-10-19T07:39:53.849Z,74.30
2017-10-19T07:42:21.481Z,74.00
2017-10-19T07:44:49.163Z,73.80
2017-10-19T07:47:16.743Z,73.40
2017-10-19T07:49:44.383Z,73.10
2017-10-19T07:52:11.942Z,72.40
2017-10-19T07:54:40.693Z,73.00
2017-10-19T07:57:09.278Z,73.10
2017-10-19T07:59:36.869Z,73.20
2017-10-19T08:02:04.495Z,72.80
2017-10-19T08:04:32.057Z,72.20
2017-10-19T08:06:59.666Z,71.90
2017-10-19T08:09:27.723Z,71.80
2017-10-19T08:11:55.297Z,71.50
2017-10-19T08:14:24.405Z,71.20
2017-10-19T08:16:51.986Z,71.00
2017-10-19T08:19:20.381Z,70.30
2017-10-19T08:21:47.964Z,71.00
2017-10-19T08:24:15.581Z,71.90
2017-10-19T08:29:12.074Z,70.80
2017-10-19T08:31:41.190Z,69.70
2017-10-19T08:34:08.769Z,70.00
2017-10-19T08:36:36.805Z,69.70
2017-10-19T08:39:04.413Z,69.20
2017-10-19T08:41:32.034Z,69.10
2017-10-19T08:43:59.701Z,67.50
2017-10-19T08:46:27.312Z,67.10
2017-10-19T08:48:55.696Z,67.50
2017-10-19T08:51:24.059Z,67.90
2017-10-19T08:53:52.082Z,68.30
2017-10-19T08:56:19.669Z,67.90
2017-10-19T08:58:47.297Z,67.50
2017-10-19T09:01:16.008Z,67.70
2017-10-19T09:03:43.645Z,66.70
2017-10-19T09:08:40.150Z,66.60
2017-10-19T09:11:08.937Z,66.90
2017-10-19T09:13:36.642Z,67.40
2017-10-19T09:16:04.324Z,66.70
2017-10-19T09:18:31.917Z,66.50
2017-10-19T09:21:01.069Z,66.10
2017-10-19T09:23:29.796Z,65.50
2017-10-19T09:28:27.925Z,63.80
2017-10-19T09:30:56.307Z,62.80
2017-10-19T09:33:24.638Z,60.50
2017-10-19T09:35:53.010Z,55.40
2017-10-19T09:38:20.597Z,52.50
2017-10-19T09:40:48.263Z,50.80
2017-10-19T09:43:15.850Z,49.20
2017-10-19T09:45:44.216Z,48.10
2017-10-19T09:48:11.873Z,46.30
2017-10-19T09:50:44.161Z,44.70
2017-10-19T09:53:12.626Z,43.30
2017-10-19T09:55:41.122Z,41.40
2017-10-19T09:58:09.503Z,43.00
2017-10-19T10:00:39.009Z,42.80
2017-10-19T10:03:06.644Z,44.00
2017-10-19T10:05:34.229Z,43.90
2017-10-19T10:08:01.862Z,45.20
2017-10-19T10:10:30.251Z,46.70
2017-10-19T10:12:57.924Z,49.20
2017-10-19T10:15:25.523Z,49.60
2017-10-19T10:17:53.142Z,49.90
2017-10-19T10:20:20.797Z,49.30
2017-10-19T10:22:49.568Z,46.30
2017-10-19T10:25:17.577Z,47.90
2017-10-19T10:27:45.913Z,45.80
2017-10-19T10:30:13.525Z,47.30
2017-10-19T10:32:41.081Z,49.80
2017-10-19T10:35:08.669Z,51.90
2017-10-19T10:37:37.078Z,52.10
2017-10-19T10:40:04.641Z,52.30
2017-10-19T10:42:32.266Z,53.10
2017-10-19T10:44:59.825Z,53.80
2017-10-19T10:47:27.386Z,52.40
2017-10-19T10:49:55.001Z,50.70
2017-10-19T10:52:23.696Z,52.00
2017-10-19T10:54:51.321Z,51.60
2017-10-19T10:57:18.886Z,50.30
2017-10-19T10:59:46.473Z,49.80
2017-10-19T11:02:14.097Z,51.50
2017-10-19T11:04:41.686Z,50.50
2017-10-19T11:07:09.302Z,50.60
2017-10-19T11:09:37.274Z,50.00
2017-10-19T11:12:04.910Z,51.00
2017-10-19T11:14:33.258Z,49.70
2017-10-19T11:17:00.845Z,50.20
2017-10-19T11:19:29.241Z,49.60
2017-10-19T11:21:56.816Z,51.00
2017-10-19T11:24:25.201Z,50.70
2017-10-19T11:26:52.785Z,49.90
2017-10-19T11:29:20.821Z,49.10
2017-10-19T11:31:48.384Z,49.70
2017-10-19T11:34:16.357Z,49.90
2017-10-19T11:36:43.993Z,50.00
2017-10-19T11:39:11.569Z,50.20
2017-10-19T11:41:39.195Z,50.70
2017-10-19T11:44:06.771Z,50.00
2017-10-19T11:46:34.782Z,50.80
2017-10-19T11:49:02.345Z,50.80
2017-10-19T11:51:29.912Z,50.60
2017-10-19T11:53:57.512Z,48.90
2017-10-19T11:56:25.481Z,49.40
2017-10-19T11:58:53.094Z,50.60
2017-10-19T12:01:21.057Z,50.40
2017-10-19T12:03:48.670Z,51.10
2017-10-19T12:06:16.245Z,51.30
2017-10-19T12:08:43.890Z,51.30
2017-10-19T12:11:11.469Z,50.40
2017-10-19T12:13:39.053Z,49.60
2017-10-19T12:16:06.666Z,49.80
2017-10-19T12:18:34.269Z,49.40
2017-10-19T12:21:01.884Z,47.60
2017-10-19T12:23:29.471Z,46.30
2017-10-19T12:25:57.102Z,46.50
2017-10-19T12:28:24.676Z,47.30
2017-10-19T12:30:52.300Z,47.10
2017-10-19T12:33:19.860Z,44.60
2017-10-19T12:35:47.420Z,44.80
2017-10-19T12:38:15.038Z,44.20
2017-10-19T12:40:42.602Z,43.70
2017-10-19T12:43:10.253Z,44.40
2017-10-19T12:45:37.817Z,44.20
2017-10-19T12:48:05.452Z,43.20
2017-10-19T12:50:33.094Z,43.00
2017-10-19T12:53:01.430Z,42.70
2017-10-19T12:55:29.040Z,42.60
2017-10-19T12:57:56.601Z,42.70
2017-10-19T13:00:24.157Z,42.90
2017-10-19T13:02:51.761Z,43.30
2017-10-19T13:05:19.345Z,43.30
2017-10-19T13:07:46.973Z,43.50
2017-10-19T13:10:14.541Z,43.80
2017-10-19T13:12:42.121Z,43.40
2017-10-19T13:15:09.717Z,41.60
2017-10-19T13:17:37.314Z,42.10
2017-10-19T13:20:04.935Z,42.60
2017-10-19T13:22:32.559Z,41.60
2017-10-19T13:25:00.137Z,40.30
2017-10-19T13:27:27.741Z,40.50
2017-10-19T13:29:55.312Z,41.20
2017-10-19T13:32:22.940Z,41.10
2017-10-19T13:34:50.525Z,40.50
2017-10-19T13:37:18.112Z,40.40
2017-10-19T13:39:45.741Z,39.90
2017-10-19T13:42:14.078Z,39.10
2017-10-19T13:44:42.089Z,39.10
2017-10-19T13:47:09.703Z,38.80
2017-10-19T13:49:37.301Z,39.50
2017-10-19T13:52:04.913Z,40.20
2017-10-19T13:54:32.516Z,38.90
2017-10-19T13:57:00.132Z,37.70
2017-10-19T13:59:27.749Z,38.20
2017-10-19T14:01:55.366Z,37.20
2017-10-19T14:04:22.994Z,36.80
2017-10-19T14:06:50.571Z,36.10
2017-10-19T14:09:18.184Z,37.70
2017-10-19T14:11:45.745Z,36.20
2017-10-19T14:14:13.349Z,36.50
2017-10-19T14:16:40.919Z,36.00
2017-10-19T14:19:08.524Z,34.90
2017-10-19T14:21:36.486Z,35.30
2017-10-19T14:24:04.508Z,35.90
2017-10-19T14:26:32.102Z,35.20
2017-10-19T14:28:59.678Z,34.60
2017-10-19T14:31:27.276Z,35.00
2017-10-19T14:33:54.854Z,35.50
2017-10-19T14:36:22.498Z,34.60
2017-10-19T14:38:50.137Z,34.60
2017-10-19T14:41:17.762Z,35.20
2017-10-19T14:43:45.325Z,35.70
2017-10-19T14:46:12.933Z,35.30
2017-10-19T14:48:40.542Z,35.20
2017-10-19T14:51:08.177Z,35.60
2017-10-19T14:53:35.762Z,35.40
2017-10-19T14:56:03.327Z,35.00
2017-10-19T14:58:31.321Z,35.20
2017-10-19T15:00:58.901Z,34.80
2017-10-19T15:03:27.278Z,35.50
2017-10-19T15:05:54.853Z,35.60
2017-10-19T15:08:22.477Z,35.10
2017-10-19T15:10:50.053Z,35.60
2017-10-19T15:13:17.667Z,35.70
2017-10-19T15:15:45.270Z,35.50
2017-10-19T15:18:13.289Z,35.30
2017-10-19T15:20:40.897Z,35.70
2017-10-19T15:23:09.226Z,35.50
2017-10-19T15:25:36.844Z,35.70
2017-10-19T15:28:04.420Z,36.00
2017-10-19T15:30:32.821Z,35.60
2017-10-19T15:33:01.167Z,35.90
2017-10-19T15:35:28.757Z,36.10
2017-10-19T15:37:56.388Z,36.10
2017-10-19T15:40:24.949Z,36.70
2017-10-19T15:42:52.561Z,37.40
2017-10-19T15:45:20.148Z,37.20
2017-10-19T15:47:48.545Z,37.30
2017-10-19T15:50:16.875Z,37.30
2017-10-19T15:52:44.899Z,38.20
2017-10-19T15:55:12.867Z,38.80
2017-10-19T15:57:40.873Z,39.70
2017-10-19T16:00:08.441Z,40.60
2017-10-19T16:02:36.289Z,42.50
2017-10-19T16:05:04.306Z,43.30
2017-10-19T16:07:31.875Z,44.40
2017-10-19T16:09:59.485Z,45.50
2017-10-19T16:12:27.076Z,46.50
2017-10-19T16:14:55.062Z,47.00
2017-10-19T16:17:22.622Z,47.40
2017-10-19T16:19:50.673Z,47.70
2017-10-19T16:22:18.252Z,48.10
2017-10-19T16:24:45.891Z,48.30
2017-10-19T16:27:13.470Z,49.20
2017-10-19T16:29:42.373Z,49.70
2017-10-19T16:32:11.597Z,49.60
2017-10-19T16:34:39.568Z,51.40
2017-10-19T16:37:07.950Z,52.10
2017-10-19T16:39:35.505Z,52.50
2017-10-19T16:42:03.153Z,52.90
2017-10-19T16:44:31.226Z,53.50
2017-10-19T16:46:59.301Z,53.90
2017-10-19T16:49:26.882Z,54.40
2017-10-19T16:51:54.894Z,54.90
2017-10-19T16:54:22.499Z,55.30
2017-10-19T16:56:50.059Z,55.50
2017-10-19T16:59:17.686Z,55.80
2017-10-19T17:01:45.269Z,56.00
2017-10-19T17:04:12.947Z,56.10
2017-10-19T17:06:40.543Z,56.50
2017-10-19T17:09:08.101Z,56.80
2017-10-19T17:11:36.369Z,57.10
2017-10-19T17:14:04.742Z,57.30
2017-10-19T17:16:32.352Z,57.30
2017-10-19T17:18:59.955Z,57.50
2017-10-19T17:21:27.586Z,57.90
2017-10-19T17:23:55.155Z,58.20
2017-10-19T17:26:22.774Z,58.10
2017-10-19T17:28:51.140Z,58.30
2017-10-19T17:31:19.182Z,58.40
2017-10-19T17:33:47.435Z,58.60
2017-10-19T17:36:15.225Z,58.70
2017-10-19T17:38:43.563Z,58.90
2017-10-19T17:41:11.253Z,59.00
2017-10-19T17:43:39.297Z,59.20
2017-10-19T17:46:06.858Z,59.60
2017-10-19T17:48:34.462Z,59.60
2017-10-19T17:51:02.039Z,59.80
2017-10-19T17:53:29.658Z,59.80
2017-10-19T17:55:57.236Z,59.80
2017-10-19T17:58:25.025Z,59.70
2017-10-19T18:00:52.609Z,60.50
2017-10-19T18:03:20.576Z,61.10
2017-10-19T18:05:48.186Z,61.60
2017-10-19T18:08:16.517Z,61.90
2017-10-19T18:10:44.139Z,62.00
2017-10-19T18:13:11.736Z,62.40
2017-10-19T18:15:39.341Z,62.40
2017-10-19T18:18:06.926Z,62.60
2017-10-19T18:20:34.565Z,62.50
2017-10-19T18:23:02.143Z,62.50
2017-10-19T18:25:30.347Z,62.70
2017-10-19T18:27:57.931Z,62.80
2017-10-19T18:30:25.509Z,63.50
2017-10-19T18:32:53.122Z,63.70
2017-10-19T18:35:21.858Z,63.60
2017-10-19T18:37:49.465Z,63.40
2017-10-19T18:40:17.086Z,63.60
2017-10-19T18:42:44.713Z,63.50
2017-10-19T18:45:12.702Z,63.30
2017-10-19T18:47:40.308Z,62.70
2017-10-19T18:50:07.870Z,62.70
2017-10-19T18:52:35.663Z,63.00
2017-10-19T18:55:04.405Z,63.50
2017-10-19T18:57:32.360Z,64.60
2017-10-19T18:59:59.995Z,64.30
2017-10-19T19:02:27.599Z,64.40
2017-10-19T19:04:56.344Z,64.20
2017-10-19T19:09:52.889Z,64.00
2017-10-19T19:12:21.589Z,63.50
2017-10-19T19:14:50.365Z,63.00
2017-10-19T19:17:17.974Z,64.20
2017-10-19T19:19:45.534Z,64.70
2017-10-19T19:22:13.552Z,64.50
2017-10-19T19:24:41.120Z,64.70
2017-10-19T19:27:08.750Z,64.50
2017-10-19T19:29:36.326Z,64.40
2017-10-19T19:32:04.716Z,65.00
2017-10-19T19:34:32.281Z,65.80
2017-10-19T19:36:59.922Z,65.90
2017-10-19T19:39:27.562Z,65.10
2017-10-19T19:41:55.141Z,64.80
2017-10-19T19:44:22.787Z,65.10
2017-10-19T19:46:50.769Z,65.90
2017-10-19T19:49:18.377Z,65.90
2017-10-19T19:51:45.935Z,65.90
2017-10-19T19:54:14.696Z,65.10
2017-10-19T19:56:42.278Z,65.20
2017-10-19T19:59:09.889Z,65.70
2017-10-19T20:04:06.444Z,65.40
2017-10-19T20:06:34.797Z,64.90
2017-10-19T20:09:02.378Z,65.50
2017-10-19T20:11:29.990Z,65.60
2017-10-19T20:13:57.575Z,64.50
2017-10-19T20:16:26.333Z,63.30
2017-10-19T20:18:53.919Z,63.20
2017-10-19T20:21:21.930Z,64.10
2017-10-19T20:23:50.263Z,64.80
2017-10-19T20:26:17.841Z,65.70
2017-10-19T20:28:46.577Z,65.70
2017-10-19T20:31:14.167Z,65.50
2017-10-19T20:33:41.772Z,65.40
2017-10-19T20:36:09.353Z,65.60
2017-10-19T20:38:37.000Z,66.90
2017-10-19T20:41:05.964Z,65.20
2017-10-19T20:43:33.597Z,64.80
2017-10-19T20:46:01.156Z,65.60
2017-10-19T20:48:29.856Z,66.30
2017-10-19T20:50:57.461Z,66.60
2017-10-19T20:53:26.156Z,66.60
2017-10-19T20:55:53.763Z,66.70
2017-10-19T20:58:21.338Z,67.10
2017-10-19T21:00:49.341Z,67.30
2017-10-19T21:03:16.906Z,67.80
2017-10-19T21:05:44.530Z,67.80
2017-10-19T21:08:12.113Z,67.10
2017-10-19T21:10:39.731Z,66.40
2017-10-19T21:13:07.701Z,66.70
2017-10-19T21:15:35.661Z,67.50
2017-10-19T21:18:03.274Z,67.90
2017-10-19T21:20:30.861Z,67.30
2017-10-19T21:22:59.613Z,66.60
2017-10-19T21:25:27.177Z,66.10
2017-10-19T21:27:54.803Z,66.80
2017-10-19T21:30:22.394Z,68.60
2017-10-19T21:35:18.941Z,68.90
2017-10-19T21:37:46.569Z,67.70
2017-10-19T21:40:14.163Z,66.30
2017-10-19T21:42:41.721Z,66.50
2017-10-19T21:45:09.329Z,68.30
2017-10-19T21:47:36.914Z,70.80
2017-10-19T21:50:04.604Z,70.20
2017-10-19T21:52:32.221Z,69.30
2017-10-19T21:54:59.849Z,69.10
2017-10-19T21:57:27.409Z,69.90
2017-10-19T21:59:55.008Z,71.00
2017-10-19T22:02:29.317Z,71.70
2017-10-19T22:04:56.962Z,70.60
2017-10-19T22:07:24.538Z,69.90
2017-10-19T22:09:52.160Z,69.30
2017-10-19T22:12:20.866Z,68.90
2017-10-19T22:14:48.857Z,68.90
2017-10-19T22:17:17.622Z,68.30
2017-10-19T22:19:45.232Z,68.90
2017-10-19T22:22:12.797Z,67.90
2017-10-19T22:24:40.379Z,68.40
2017-10-19T22:27:07.977Z,67.50
2017-10-19T22:29:35.561Z,67.00
2017-10-19T22:32:03.586Z,65.90
2017-10-19T22:34:31.158Z,66.70
2017-10-19T22:36:58.759Z,69.10
2017-10-19T22:39:26.342Z,71.60
2017-10-19T22:41:53.974Z,71.40
2017-10-19T22:44:21.585Z,70.60
2017-10-19T22:46:49.159Z,70.80
2017-10-19T22:49:16.779Z,71.20
2017-10-19T22:51:44.357Z,70.90
2017-10-19T22:54:11.964Z,70.50
2017-10-19T22:56:39.525Z,70.40
2017-10-19T22:59:07.134Z,70.80
2017-10-19T23:01:34.708Z,69.30
2017-10-19T23:04:02.302Z,68.50
2017-10-19T23:06:29.934Z,67.30
2017-10-19T23:08:57.522Z,67.90
2017-10-19T23:11:25.129Z,68.90
2017-10-19T23:13:52.700Z,69.10
2017-10-19T23:16:21.250Z,69.10
2017-10-19T23:18:48.829Z,69.10
2017-10-19T23:21:16.797Z,69.10
2017-10-19T23:23:44.404Z,69.10
2017-10-19T23:26:12.012Z,68.70
2017-10-19T23:28:39.621Z,69.30
2017-10-19T23:31:07.957Z,69.00
2017-10-19T23:33:36.346Z,68.10
2017-10-19T23:36:03.933Z,68.60
2017-10-19T23:38:31.494Z,68.90
2017-10-19T23:40:59.109Z,69.10
2017-10-19T23:43:26.676Z,69.60
2017-10-19T23:45:54.305Z,69.80
2017-10-19T23:48:21.887Z,70.70
2017-10-19T23:50:49.486Z,70.20
2017-10-19T23:53:17.050Z,70.00
2017-10-19T23:55:44.669Z,69.10
2017-10-19T23:58:12.240Z,68.30
